sensor_id;sensor_type;location;lat;lon;timestamp;temperature;humidity
42141;DHT22;27809;51.864;5.646;2024-02-21T00:00:57;10.20;78.50
42141;DHT22;27809;51.864;5.646;2024-02-21T00:03:23;10.20;78.80
42141;DHT22;27809;51.864;5.646;2024-02-21T00:05:48;10.20;78.60
42141;DHT22;27809;51.864;5.646;2024-02-21T00:08:14;10.20;78.90
42141;DHT22;27809;51.864;5.646;2024-02-21T00:10:39;10.20;78.90
42141;DHT22;27809;51.864;5.646;2024-02-21T00:13:05;10.20;79.10
42141;DHT22;27809;51.864;5.646;2024-02-21T00:15:31;10.20;79.00
42141;DHT22;27809;51.864;5.646;2024-02-21T00:17:56;10.20;79.40
42141;DHT22;27809;51.864;5.646;2024-02-21T00:20:22;10.20;79.80
42141;DHT22;27809;51.864;5.646;2024-02-21T00:22:47;10.20;79.80
42141;DHT22;27809;51.864;5.646;2024-02-21T00:25:13;10.20;80.00
42141;DHT22;27809;51.864;5.646;2024-02-21T00:27:39;10.20;80.20
42141;DHT22;27809;51.864;5.646;2024-02-21T00:30:05;10.20;80.40
42141;DHT22;27809;51.864;5.646;2024-02-21T00:32:31;10.20;80.70
42141;DHT22;27809;51.864;5.646;2024-02-21T00:34:59;10.20;80.40
42141;DHT22;27809;51.864;5.646;2024-02-21T00:37:25;10.20;80.70
42141;DHT22;27809;51.864;5.646;2024-02-21T00:39:50;10.20;81.00
42141;DHT22;27809;51.864;5.646;2024-02-21T00:42:16;10.20;81.00
42141;DHT22;27809;51.864;5.646;2024-02-21T00:44:41;10.20;80.70
42141;DHT22;27809;51.864;5.646;2024-02-21T00:47:07;10.20;80.60
42141;DHT22;27809;51.864;5.646;2024-02-21T00:49:32;10.20;80.40
42141;DHT22;27809;51.864;5.646;2024-02-21T00:51:58;10.10;80.00
42141;DHT22;27809;51.864;5.646;2024-02-21T00:54:23;10.20;80.20
42141;DHT22;27809;51.864;5.646;2024-02-21T00:56:49;10.20;80.60
42141;DHT22;27809;51.864;5.646;2024-02-21T00:59:15;10.20;80.50
42141;DHT22;27809;51.864;5.646;2024-02-21T01:01:40;10.10;80.60
42141;DHT22;27809;51.864;5.646;2024-02-21T01:04:11;10.20;80.50
42141;DHT22;27809;51.864;5.646;2024-02-21T01:06:37;10.20;81.00
42141;DHT22;27809;51.864;5.646;2024-02-21T01:09:03;10.20;81.00
42141;DHT22;27809;51.864;5.646;2024-02-21T01:11:29;10.20;81.10
42141;DHT22;27809;51.864;5.646;2024-02-21T01:13:55;10.20;81.20
42141;DHT22;27809;51.864;5.646;2024-02-21T01:16:21;10.20;80.90
42141;DHT22;27809;51.864;5.646;2024-02-21T01:18:46;10.20;81.20
42141;DHT22;27809;51.864;5.646;2024-02-21T01:21:12;10.10;80.90
42141;DHT22;27809;51.864;5.646;2024-02-21T01:23:37;10.10;80.90
42141;DHT22;27809;51.864;5.646;2024-02-21T01:26:04;10.10;80.90
42141;DHT22;27809;51.864;5.646;2024-02-21T01:28:30;10.10;81.00
42141;DHT22;27809;51.864;5.646;2024-02-21T01:30:56;10.10;81.40
42141;DHT22;27809;51.864;5.646;2024-02-21T01:33:21;10.10;81.30
42141;DHT22;27809;51.864;5.646;2024-02-21T01:35:47;10.10;81.80
42141;DHT22;27809;51.864;5.646;2024-02-21T01:38:13;10.10;82.20
42141;DHT22;27809;51.864;5.646;2024-02-21T01:40:39;10.10;82.40
42141;DHT22;27809;51.864;5.646;2024-02-21T01:43:18;10.10;83.00
42141;DHT22;27809;51.864;5.646;2024-02-21T01:45:48;10.10;83.40
42141;DHT22;27809;51.864;5.646;2024-02-21T01:48:14;10.10;83.20
42141;DHT22;27809;51.864;5.646;2024-02-21T01:50:40;10.10;83.10
42141;DHT22;27809;51.864;5.646;2024-02-21T01:53:06;10.10;83.30
42141;DHT22;27809;51.864;5.646;2024-02-21T01:55:32;10.10;83.20
42141;DHT22;27809;51.864;5.646;2024-02-21T01:57:58;10.20;83.10
42141;DHT22;27809;51.864;5.646;2024-02-21T02:00:24;10.20;82.70
42141;DHT22;27809;51.864;5.646;2024-02-21T02:02:50;10.10;82.60
42141;DHT22;27809;51.864;5.646;2024-02-21T02:05:16;10.10;82.50
42141;DHT22;27809;51.864;5.646;2024-02-21T02:07:44;10.20;82.40
42141;DHT22;27809;51.864;5.646;2024-02-21T02:10:09;10.10;82.10
42141;DHT22;27809;51.864;5.646;2024-02-21T02:12:35;10.10;81.80
42141;DHT22;27809;51.864;5.646;2024-02-21T02:15:02;10.10;81.80
42141;DHT22;27809;51.864;5.646;2024-02-21T02:17:31;10.10;81.70
42141;DHT22;27809;51.864;5.646;2024-02-21T02:19:57;10.10;81.70
42141;DHT22;27809;51.864;5.646;2024-02-21T02:22:30;10.10;81.70
42141;DHT22;27809;51.864;5.646;2024-02-21T02:24:57;10.10;81.70
42141;DHT22;27809;51.864;5.646;2024-02-21T02:27:23;10.10;81.80
42141;DHT22;27809;51.864;5.646;2024-02-21T02:29:49;10.10;81.70
42141;DHT22;27809;51.864;5.646;2024-02-21T02:32:15;10.10;81.50
42141;DHT22;27809;51.864;5.646;2024-02-21T02:34:41;10.10;81.30
42141;DHT22;27809;51.864;5.646;2024-02-21T02:37:06;10.10;81.10
42141;DHT22;27809;51.864;5.646;2024-02-21T02:39:32;10.10;81.10
42141;DHT22;27809;51.864;5.646;2024-02-21T02:41:58;10.10;81.30
42141;DHT22;27809;51.864;5.646;2024-02-21T02:44:23;10.10;81.50
42141;DHT22;27809;51.864;5.646;2024-02-21T02:46:49;10.10;81.40
42141;DHT22;27809;51.864;5.646;2024-02-21T02:49:14;10.10;81.10
42141;DHT22;27809;51.864;5.646;2024-02-21T02:51:43;10.10;80.80
42141;DHT22;27809;51.864;5.646;2024-02-21T02:54:09;10.00;80.60
42141;DHT22;27809;51.864;5.646;2024-02-21T02:56:35;10.10;80.40
42141;DHT22;27809;51.864;5.646;2024-02-21T02:59:00;10.10;80.40
42141;DHT22;27809;51.864;5.646;2024-02-21T03:01:26;10.10;80.50
42141;DHT22;27809;51.864;5.646;2024-02-21T03:03:52;10.00;80.90
42141;DHT22;27809;51.864;5.646;2024-02-21T03:06:19;10.10;81.30
42141;DHT22;27809;51.864;5.646;2024-02-21T03:08:44;10.00;81.20
42141;DHT22;27809;51.864;5.646;2024-02-21T03:11:10;10.10;81.10
42141;DHT22;27809;51.864;5.646;2024-02-21T03:13:36;10.10;81.00
42141;DHT22;27809;51.864;5.646;2024-02-21T03:16:02;10.10;81.00
42141;DHT22;27809;51.864;5.646;2024-02-21T03:18:28;10.10;80.80
42141;DHT22;27809;51.864;5.646;2024-02-21T03:20:53;10.10;80.90
42141;DHT22;27809;51.864;5.646;2024-02-21T03:23:19;10.10;81.40
42141;DHT22;27809;51.864;5.646;2024-02-21T03:25:45;10.10;82.20
42141;DHT22;27809;51.864;5.646;2024-02-21T03:28:10;10.10;81.30
42141;DHT22;27809;51.864;5.646;2024-02-21T03:30:36;10.10;81.00
42141;DHT22;27809;51.864;5.646;2024-02-21T03:33:02;10.10;81.20
42141;DHT22;27809;51.864;5.646;2024-02-21T03:35:28;10.10;81.20
42141;DHT22;27809;51.864;5.646;2024-02-21T03:37:53;10.10;80.90
42141;DHT22;27809;51.864;5.646;2024-02-21T03:40:19;10.10;80.60
42141;DHT22;27809;51.864;5.646;2024-02-21T03:42:45;10.10;81.00
42141;DHT22;27809;51.864;5.646;2024-02-21T03:45:10;10.10;80.20
42141;DHT22;27809;51.864;5.646;2024-02-21T03:47:36;10.10;80.40
42141;DHT22;27809;51.864;5.646;2024-02-21T03:50:02;10.10;79.80
42141;DHT22;27809;51.864;5.646;2024-02-21T03:52:27;10.10;79.80
42141;DHT22;27809;51.864;5.646;2024-02-21T03:54:53;10.10;79.90
42141;DHT22;27809;51.864;5.646;2024-02-21T03:57:20;10.10;79.60
42141;DHT22;27809;51.864;5.646;2024-02-21T03:59:46;10.10;79.40
42141;DHT22;27809;51.864;5.646;2024-02-21T04:02:12;10.10;79.20
42141;DHT22;27809;51.864;5.646;2024-02-21T04:04:37;10.10;79.20
42141;DHT22;27809;51.864;5.646;2024-02-21T04:07:04;10.10;79.30
42141;DHT22;27809;51.864;5.646;2024-02-21T04:09:32;10.10;79.20
42141;DHT22;27809;51.864;5.646;2024-02-21T04:11:59;10.10;78.70
42141;DHT22;27809;51.864;5.646;2024-02-21T04:14:25;10.00;78.50
42141;DHT22;27809;51.864;5.646;2024-02-21T04:16:50;10.00;78.50
42141;DHT22;27809;51.864;5.646;2024-02-21T04:19:16;10.00;78.60
42141;DHT22;27809;51.864;5.646;2024-02-21T04:21:41;10.00;78.80
42141;DHT22;27809;51.864;5.646;2024-02-21T04:24:07;10.00;78.80
42141;DHT22;27809;51.864;5.646;2024-02-21T04:26:33;10.00;78.80
42141;DHT22;27809;51.864;5.646;2024-02-21T04:28:59;10.00;78.90
42141;DHT22;27809;51.864;5.646;2024-02-21T04:31:25;10.00;78.80
42141;DHT22;27809;51.864;5.646;2024-02-21T04:33:50;10.00;79.00
42141;DHT22;27809;51.864;5.646;2024-02-21T04:36:16;10.00;78.60
42141;DHT22;27809;51.864;5.646;2024-02-21T04:38:41;10.00;78.70
42141;DHT22;27809;51.864;5.646;2024-02-21T04:41:07;10.00;78.70
42141;DHT22;27809;51.864;5.646;2024-02-21T04:43:33;10.00;78.60
42141;DHT22;27809;51.864;5.646;2024-02-21T04:45:58;10.00;78.50
42141;DHT22;27809;51.864;5.646;2024-02-21T04:48:24;10.00;78.80
42141;DHT22;27809;51.864;5.646;2024-02-21T04:50:50;10.00;78.80
42141;DHT22;27809;51.864;5.646;2024-02-21T04:53:15;10.00;78.80
42141;DHT22;27809;51.864;5.646;2024-02-21T04:55:41;10.00;78.20
42141;DHT22;27809;51.864;5.646;2024-02-21T04:58:07;10.00;77.80
42141;DHT22;27809;51.864;5.646;2024-02-21T05:00:33;10.00;77.80
42141;DHT22;27809;51.864;5.646;2024-02-21T05:02:58;10.00;77.80
42141;DHT22;27809;51.864;5.646;2024-02-21T05:05:24;10.00;77.40
42141;DHT22;27809;51.864;5.646;2024-02-21T05:07:50;10.00;77.60
42141;DHT22;27809;51.864;5.646;2024-02-21T05:10:15;10.00;77.80
42141;DHT22;27809;51.864;5.646;2024-02-21T05:12:42;10.00;77.90
42141;DHT22;27809;51.864;5.646;2024-02-21T05:15:08;10.00;77.80
42141;DHT22;27809;51.864;5.646;2024-02-21T05:17:34;10.00;77.30
42141;DHT22;27809;51.864;5.646;2024-02-21T05:19:59;10.00;77.50
42141;DHT22;27809;51.864;5.646;2024-02-21T05:22:25;10.00;77.60
42141;DHT22;27809;51.864;5.646;2024-02-21T05:24:50;10.00;77.70
42141;DHT22;27809;51.864;5.646;2024-02-21T05:27:16;10.00;77.60
42141;DHT22;27809;51.864;5.646;2024-02-21T05:29:41;10.00;77.50
42141;DHT22;27809;51.864;5.646;2024-02-21T05:32:07;10.00;77.30
42141;DHT22;27809;51.864;5.646;2024-02-21T05:34:32;9.90;76.90
42141;DHT22;27809;51.864;5.646;2024-02-21T05:36:58;9.90;76.80
42141;DHT22;27809;51.864;5.646;2024-02-21T05:39:25;9.90;76.70
42141;DHT22;27809;51.864;5.646;2024-02-21T05:41:51;9.90;76.50
42141;DHT22;27809;51.864;5.646;2024-02-21T05:44:18;9.90;76.70
42141;DHT22;27809;51.864;5.646;2024-02-21T05:46:43;9.90;76.60
42141;DHT22;27809;51.864;5.646;2024-02-21T05:49:09;9.90;76.70
42141;DHT22;27809;51.864;5.646;2024-02-21T05:51:35;9.90;76.50
42141;DHT22;27809;51.864;5.646;2024-02-21T05:54:00;9.90;76.40
42141;DHT22;27809;51.864;5.646;2024-02-21T05:56:26;9.90;75.90
42141;DHT22;27809;51.864;5.646;2024-02-21T05:58:52;9.90;75.80
42141;DHT22;27809;51.864;5.646;2024-02-21T06:01:17;9.90;75.20
42141;DHT22;27809;51.864;5.646;2024-02-21T06:03:43;9.90;75.50
42141;DHT22;27809;51.864;5.646;2024-02-21T06:06:09;9.90;75.50
42141;DHT22;27809;51.864;5.646;2024-02-21T06:08:34;9.90;75.50
42141;DHT22;27809;51.864;5.646;2024-02-21T06:11:00;9.80;75.40
42141;DHT22;27809;51.864;5.646;2024-02-21T06:13:26;9.80;75.20
42141;DHT22;27809;51.864;5.646;2024-02-21T06:15:51;9.80;75.20
42141;DHT22;27809;51.864;5.646;2024-02-21T06:18:17;9.80;74.90
42141;DHT22;27809;51.864;5.646;2024-02-21T06:20:43;9.80;75.40
42141;DHT22;27809;51.864;5.646;2024-02-21T06:23:09;9.80;75.50
42141;DHT22;27809;51.864;5.646;2024-02-21T06:25:35;9.80;75.50
42141;DHT22;27809;51.864;5.646;2024-02-21T06:28:00;9.70;75.30
42141;DHT22;27809;51.864;5.646;2024-02-21T06:30:26;9.70;75.50
42141;DHT22;27809;51.864;5.646;2024-02-21T06:32:52;9.70;75.50
42141;DHT22;27809;51.864;5.646;2024-02-21T06:35:17;9.70;75.50
42141;DHT22;27809;51.864;5.646;2024-02-21T06:37:43;9.70;75.60
42141;DHT22;27809;51.864;5.646;2024-02-21T06:40:10;9.70;75.80
42141;DHT22;27809;51.864;5.646;2024-02-21T06:42:36;9.70;76.30
42141;DHT22;27809;51.864;5.646;2024-02-21T06:45:02;9.80;76.80
42141;DHT22;27809;51.864;5.646;2024-02-21T06:47:27;9.80;76.80
42141;DHT22;27809;51.864;5.646;2024-02-21T06:49:53;9.80;76.70
42141;DHT22;27809;51.864;5.646;2024-02-21T06:52:18;9.80;76.30
42141;DHT22;27809;51.864;5.646;2024-02-21T06:54:48;9.80;76.10
42141;DHT22;27809;51.864;5.646;2024-02-21T06:57:13;9.80;76.00
42141;DHT22;27809;51.864;5.646;2024-02-21T06:59:41;9.80;75.70
42141;DHT22;27809;51.864;5.646;2024-02-21T07:02:06;9.80;75.00
42141;DHT22;27809;51.864;5.646;2024-02-21T07:04:33;9.80;74.90
42141;DHT22;27809;51.864;5.646;2024-02-21T07:06:58;9.70;74.50
42141;DHT22;27809;51.864;5.646;2024-02-21T07:09:24;9.70;74.70
42141;DHT22;27809;51.864;5.646;2024-02-21T07:11:50;9.70;74.50
42141;DHT22;27809;51.864;5.646;2024-02-21T07:14:15;9.70;74.70
42141;DHT22;27809;51.864;5.646;2024-02-21T07:16:41;9.70;73.80
42141;DHT22;27809;51.864;5.646;2024-02-21T07:19:07;9.70;73.70
42141;DHT22;27809;51.864;5.646;2024-02-21T07:21:32;9.70;73.80
42141;DHT22;27809;51.864;5.646;2024-02-21T07:23:58;9.70;73.70
42141;DHT22;27809;51.864;5.646;2024-02-21T07:26:23;9.90;78.90
42141;DHT22;27809;51.864;5.646;2024-02-21T07:28:49;10.00;77.30
42141;DHT22;27809;51.864;5.646;2024-02-21T07:31:15;10.00;75.30
42141;DHT22;27809;51.864;5.646;2024-02-21T07:33:40;10.00;74.00
42141;DHT22;27809;51.864;5.646;2024-02-21T07:36:07;10.00;73.30
42141;DHT22;27809;51.864;5.646;2024-02-21T07:38:33;10.00;73.00
42141;DHT22;27809;51.864;5.646;2024-02-21T07:40:59;10.00;72.40
42141;DHT22;27809;51.864;5.646;2024-02-21T07:43:25;9.90;72.00
42141;DHT22;27809;51.864;5.646;2024-02-21T07:45:52;9.90;71.20
42141;DHT22;27809;51.864;5.646;2024-02-21T07:48:18;9.90;70.90
42141;DHT22;27809;51.864;5.646;2024-02-21T07:50:44;10.00;70.80
42141;DHT22;27809;51.864;5.646;2024-02-21T07:53:10;10.00;70.70
42141;DHT22;27809;51.864;5.646;2024-02-21T07:55:35;10.00;70.50
42141;DHT22;27809;51.864;5.646;2024-02-21T07:58:01;10.00;69.80
42141;DHT22;27809;51.864;5.646;2024-02-21T08:00:27;10.00;69.30
42141;DHT22;27809;51.864;5.646;2024-02-21T08:02:52;10.00;68.40
42141;DHT22;27809;51.864;5.646;2024-02-21T08:05:18;10.00;66.40
42141;DHT22;27809;51.864;5.646;2024-02-21T08:07:44;10.00;65.50
42141;DHT22;27809;51.864;5.646;2024-02-21T08:10:09;10.00;64.90
42141;DHT22;27809;51.864;5.646;2024-02-21T08:12:35;10.00;64.60
42141;DHT22;27809;51.864;5.646;2024-02-21T08:15:01;10.00;63.40
42141;DHT22;27809;51.864;5.646;2024-02-21T08:17:29;10.00;63.10
42141;DHT22;27809;51.864;5.646;2024-02-21T08:19:54;10.00;62.70
42141;DHT22;27809;51.864;5.646;2024-02-21T08:22:20;10.00;62.90
42141;DHT22;27809;51.864;5.646;2024-02-21T08:24:45;10.10;62.60
42141;DHT22;27809;51.864;5.646;2024-02-21T08:27:11;10.10;62.40
42141;DHT22;27809;51.864;5.646;2024-02-21T08:29:37;10.20;62.60
42141;DHT22;27809;51.864;5.646;2024-02-21T08:32:02;10.20;62.00
42141;DHT22;27809;51.864;5.646;2024-02-21T08:34:28;10.20;61.10
42141;DHT22;27809;51.864;5.646;2024-02-21T08:36:55;10.20;59.90
42141;DHT22;27809;51.864;5.646;2024-02-21T08:39:21;10.20;59.50
42141;DHT22;27809;51.864;5.646;2024-02-21T08:41:47;10.20;58.90
42141;DHT22;27809;51.864;5.646;2024-02-21T08:44:12;10.20;58.30
42141;DHT22;27809;51.864;5.646;2024-02-21T08:46:38;10.30;58.50
42141;DHT22;27809;51.864;5.646;2024-02-21T08:49:06;10.30;58.50
42141;DHT22;27809;51.864;5.646;2024-02-21T08:51:31;10.30;59.20
42141;DHT22;27809;51.864;5.646;2024-02-21T08:53:58;10.40;58.50
42141;DHT22;27809;51.864;5.646;2024-02-21T08:56:26;10.40;58.90
42141;DHT22;27809;51.864;5.646;2024-02-21T08:58:51;10.60;62.80
42141;DHT22;27809;51.864;5.646;2024-02-21T09:01:17;10.90;68.20
42141;DHT22;27809;51.864;5.646;2024-02-21T09:03:42;11.70;81.00
42141;DHT22;27809;51.864;5.646;2024-02-21T09:06:09;12.00;64.70
42141;DHT22;27809;51.864;5.646;2024-02-21T09:08:35;11.90;53.60
42141;DHT22;27809;51.864;5.646;2024-02-21T09:11:01;11.80;49.30
42141;DHT22;27809;51.864;5.646;2024-02-21T09:13:27;11.70;44.60
42141;DHT22;27809;51.864;5.646;2024-02-21T09:15:52;11.60;41.00
42141;DHT22;27809;51.864;5.646;2024-02-21T09:18:18;11.50;40.10
42141;DHT22;27809;51.864;5.646;2024-02-21T09:20:44;11.40;38.50
42141;DHT22;27809;51.864;5.646;2024-02-21T09:23:10;11.30;39.20
42141;DHT22;27809;51.864;5.646;2024-02-21T09:25:35;11.30;40.00
42141;DHT22;27809;51.864;5.646;2024-02-21T09:28:02;11.20;40.10
42141;DHT22;27809;51.864;5.646;2024-02-21T09:30:28;11.30;39.50
42141;DHT22;27809;51.864;5.646;2024-02-21T09:32:54;11.20;37.70
42141;DHT22;27809;51.864;5.646;2024-02-21T09:35:19;11.20;38.00
42141;DHT22;27809;51.864;5.646;2024-02-21T09:37:48;11.20;36.20
42141;DHT22;27809;51.864;5.646;2024-02-21T09:40:15;11.10;35.50
42141;DHT22;27809;51.864;5.646;2024-02-21T09:42:42;11.10;35.40
42141;DHT22;27809;51.864;5.646;2024-02-21T09:45:25;11.20;35.50
42141;DHT22;27809;51.864;5.646;2024-02-21T09:50:36;11.10;32.90
42141;DHT22;27809;51.864;5.646;2024-02-21T09:53:04;11.10;32.50
42141;DHT22;27809;51.864;5.646;2024-02-21T09:55:33;11.10;32.20
42141;DHT22;27809;51.864;5.646;2024-02-21T09:58:01;11.10;31.30
42141;DHT22;27809;51.864;5.646;2024-02-21T10:00:27;11.20;32.50
42141;DHT22;27809;51.864;5.646;2024-02-21T10:02:53;11.30;33.60
42141;DHT22;27809;51.864;5.646;2024-02-21T10:05:19;11.30;32.20
42141;DHT22;27809;51.864;5.646;2024-02-21T10:07:45;11.40;31.30
42141;DHT22;27809;51.864;5.646;2024-02-21T10:10:11;11.40;29.90
42141;DHT22;27809;51.864;5.646;2024-02-21T10:12:36;11.40;29.40
42141;DHT22;27809;51.864;5.646;2024-02-21T10:15:12;11.30;28.90
42141;DHT22;27809;51.864;5.646;2024-02-21T10:17:38;11.20;28.80
42141;DHT22;27809;51.864;5.646;2024-02-21T10:20:07;11.10;29.30
42141;DHT22;27809;51.864;5.646;2024-02-21T10:22:34;11.10;29.70
42141;DHT22;27809;51.864;5.646;2024-02-21T10:25:11;11.00;30.50
42141;DHT22;27809;51.864;5.646;2024-02-21T10:27:40;11.00;32.00
42141;DHT22;27809;51.864;5.646;2024-02-21T10:30:13;11.00;33.00
42141;DHT22;27809;51.864;5.646;2024-02-21T10:32:55;10.90;34.50
42141;DHT22;27809;51.864;5.646;2024-02-21T10:35:27;10.90;36.20
42141;DHT22;27809;51.864;5.646;2024-02-21T10:37:54;10.90;38.30
42141;DHT22;27809;51.864;5.646;2024-02-21T10:40:23;10.90;40.20
42141;DHT22;27809;51.864;5.646;2024-02-21T10:42:52;11.00;42.30
42141;DHT22;27809;51.864;5.646;2024-02-21T10:45:19;11.10;43.60
42141;DHT22;27809;51.864;5.646;2024-02-21T10:47:48;11.20;44.20
42141;DHT22;27809;51.864;5.646;2024-02-21T10:50:20;11.30;45.40
42141;DHT22;27809;51.864;5.646;2024-02-21T10:52:59;11.40;45.80
42141;DHT22;27809;51.864;5.646;2024-02-21T10:55:38;11.40;43.90
42141;DHT22;27809;51.864;5.646;2024-02-21T10:58:07;11.40;43.10
42141;DHT22;27809;51.864;5.646;2024-02-21T11:00:33;11.40;41.20
42141;DHT22;27809;51.864;5.646;2024-02-21T11:02:59;11.40;40.70
42141;DHT22;27809;51.864;5.646;2024-02-21T11:05:25;11.40;39.80
42141;DHT22;27809;51.864;5.646;2024-02-21T11:07:53;11.40;39.50
42141;DHT22;27809;51.864;5.646;2024-02-21T11:10:25;11.40;38.50
42141;DHT22;27809;51.864;5.646;2024-02-21T11:13:08;11.50;39.80
42141;DHT22;27809;51.864;5.646;2024-02-21T11:15:34;11.60;38.40
42141;DHT22;27809;51.864;5.646;2024-02-21T11:18:00;11.60;35.50
42141;DHT22;27809;51.864;5.646;2024-02-21T11:20:36;11.60;33.60
42141;DHT22;27809;51.864;5.646;2024-02-21T11:23:02;11.50;31.30
42141;DHT22;27809;51.864;5.646;2024-02-21T11:25:31;11.50;29.50
42141;DHT22;27809;51.864;5.646;2024-02-21T11:28:02;11.40;29.00
42141;DHT22;27809;51.864;5.646;2024-02-21T11:30:30;11.40;29.10
42141;DHT22;27809;51.864;5.646;2024-02-21T11:33:03;11.40;29.50
42141;DHT22;27809;51.864;5.646;2024-02-21T11:35:33;11.30;28.90
42141;DHT22;27809;51.864;5.646;2024-02-21T11:38:12;11.30;28.70
42141;DHT22;27809;51.864;5.646;2024-02-21T11:40:44;11.30;28.70
42141;DHT22;27809;51.864;5.646;2024-02-21T11:43:10;11.30;28.00
42141;DHT22;27809;51.864;5.646;2024-02-21T11:45:35;11.30;27.50
42141;DHT22;27809;51.864;5.646;2024-02-21T11:48:02;11.30;27.50
42141;DHT22;27809;51.864;5.646;2024-02-21T11:50:30;11.30;27.20
42141;DHT22;27809;51.864;5.646;2024-02-21T11:52:57;11.20;27.10
42141;DHT22;27809;51.864;5.646;2024-02-21T11:55:23;11.20;26.80
42141;DHT22;27809;51.864;5.646;2024-02-21T11:57:49;11.20;27.10
42141;DHT22;27809;51.864;5.646;2024-02-21T12:00:16;11.30;27.40
42141;DHT22;27809;51.864;5.646;2024-02-21T12:02:43;11.30;27.10
42141;DHT22;27809;51.864;5.646;2024-02-21T12:05:09;11.30;27.00
42141;DHT22;27809;51.864;5.646;2024-02-21T12:07:36;11.40;27.10
42141;DHT22;27809;51.864;5.646;2024-02-21T12:10:09;11.40;26.50
42141;DHT22;27809;51.864;5.646;2024-02-21T12:12:36;11.40;26.70
42141;DHT22;27809;51.864;5.646;2024-02-21T12:15:03;11.50;26.10
42141;DHT22;27809;51.864;5.646;2024-02-21T12:17:30;11.60;25.70
42141;DHT22;27809;51.864;5.646;2024-02-21T12:19:56;11.70;25.70
42141;DHT22;27809;51.864;5.646;2024-02-21T12:22:22;11.80;25.40
42141;DHT22;27809;51.864;5.646;2024-02-21T12:24:48;11.90;24.40
42141;DHT22;27809;51.864;5.646;2024-02-21T12:27:14;12.00;22.90
42141;DHT22;27809;51.864;5.646;2024-02-21T12:29:39;12.10;21.80
42141;DHT22;27809;51.864;5.646;2024-02-21T12:32:05;12.20;20.50
42141;DHT22;27809;51.864;5.646;2024-02-21T12:34:30;12.30;20.40
42141;DHT22;27809;51.864;5.646;2024-02-21T12:36:58;12.30;19.80
42141;DHT22;27809;51.864;5.646;2024-02-21T12:39:24;12.40;19.20
42141;DHT22;27809;51.864;5.646;2024-02-21T12:41:50;12.40;18.80
42141;DHT22;27809;51.864;5.646;2024-02-21T12:44:15;12.50;18.20
42141;DHT22;27809;51.864;5.646;2024-02-21T12:46:42;12.60;17.60
42141;DHT22;27809;51.864;5.646;2024-02-21T12:49:08;12.60;17.00
42141;DHT22;27809;51.864;5.646;2024-02-21T12:51:34;12.60;16.00
42141;DHT22;27809;51.864;5.646;2024-02-21T12:54:00;12.60;14.00
42141;DHT22;27809;51.864;5.646;2024-02-21T12:56:26;12.60;12.90
42141;DHT22;27809;51.864;5.646;2024-02-21T12:58:58;12.60;10.80
42141;DHT22;27809;51.864;5.646;2024-02-21T13:01:24;12.50;9.80
42141;DHT22;27809;51.864;5.646;2024-02-21T13:03:49;12.50;9.50
42141;DHT22;27809;51.864;5.646;2024-02-21T13:06:15;12.50;9.70
42141;DHT22;27809;51.864;5.646;2024-02-21T13:08:41;12.50;9.40
42141;DHT22;27809;51.864;5.646;2024-02-21T13:11:06;12.50;9.80
42141;DHT22;27809;51.864;5.646;2024-02-21T13:13:32;12.50;10.00
42141;DHT22;27809;51.864;5.646;2024-02-21T13:15:58;12.50;9.60
42141;DHT22;27809;51.864;5.646;2024-02-21T13:18:24;12.50;10.00
42141;DHT22;27809;51.864;5.646;2024-02-21T13:20:50;12.50;9.30
42141;DHT22;27809;51.864;5.646;2024-02-21T13:23:15;12.50;8.60
42141;DHT22;27809;51.864;5.646;2024-02-21T13:25:41;12.50;8.80
42141;DHT22;27809;51.864;5.646;2024-02-21T13:28:07;12.60;9.20
42141;DHT22;27809;51.864;5.646;2024-02-21T13:30:32;12.60;9.20
42141;DHT22;27809;51.864;5.646;2024-02-21T13:32:58;12.60;8.10
42141;DHT22;27809;51.864;5.646;2024-02-21T13:35:24;12.60;7.70
42141;DHT22;27809;51.864;5.646;2024-02-21T13:37:49;12.60;7.40
42141;DHT22;27809;51.864;5.646;2024-02-21T13:40:15;12.50;6.60
42141;DHT22;27809;51.864;5.646;2024-02-21T13:42:41;12.50;6.10
42141;DHT22;27809;51.864;5.646;2024-02-21T13:45:08;12.50;6.80
42141;DHT22;27809;51.864;5.646;2024-02-21T13:47:34;12.50;6.90
42141;DHT22;27809;51.864;5.646;2024-02-21T13:50:02;12.50;6.60
42141;DHT22;27809;51.864;5.646;2024-02-21T13:52:30;12.40;6.20
42141;DHT22;27809;51.864;5.646;2024-02-21T13:54:56;12.40;6.80
42141;DHT22;27809;51.864;5.646;2024-02-21T13:57:21;12.40;6.80
42141;DHT22;27809;51.864;5.646;2024-02-21T13:59:47;12.40;6.90
42141;DHT22;27809;51.864;5.646;2024-02-21T14:02:12;12.40;6.90
42141;DHT22;27809;51.864;5.646;2024-02-21T14:04:38;12.40;6.80
42141;DHT22;27809;51.864;5.646;2024-02-21T14:07:04;12.40;6.90
42141;DHT22;27809;51.864;5.646;2024-02-21T14:09:29;12.40;5.50
42141;DHT22;27809;51.864;5.646;2024-02-21T14:11:55;12.30;5.20
42141;DHT22;27809;51.864;5.646;2024-02-21T14:14:21;12.30;5.70
42141;DHT22;27809;51.864;5.646;2024-02-21T14:16:47;12.30;5.50
42141;DHT22;27809;51.864;5.646;2024-02-21T14:19:13;12.30;4.50
42141;DHT22;27809;51.864;5.646;2024-02-21T14:21:39;12.20;5.40
42141;DHT22;27809;51.864;5.646;2024-02-21T14:24:05;12.20;4.00
42141;DHT22;27809;51.864;5.646;2024-02-21T14:26:31;12.20;4.20
42141;DHT22;27809;51.864;5.646;2024-02-21T14:28:57;12.20;3.90
42141;DHT22;27809;51.864;5.646;2024-02-21T14:31:23;12.20;3.90
42141;DHT22;27809;51.864;5.646;2024-02-21T14:33:48;12.20;3.00
42141;DHT22;27809;51.864;5.646;2024-02-21T14:36:14;12.10;2.80
42141;DHT22;27809;51.864;5.646;2024-02-21T14:38:41;12.10;1.20
42141;DHT22;27809;51.864;5.646;2024-02-21T14:41:07;12.10;1.60
42141;DHT22;27809;51.864;5.646;2024-02-21T14:43:33;12.00;1.50
42141;DHT22;27809;51.864;5.646;2024-02-21T14:46:00;12.10;1.70
42141;DHT22;27809;51.864;5.646;2024-02-21T14:48:28;12.00;1.30
42141;DHT22;27809;51.864;5.646;2024-02-21T14:50:54;12.00;2.90
42141;DHT22;27809;51.864;5.646;2024-02-21T14:53:19;12.30;6.50
42141;DHT22;27809;51.864;5.646;2024-02-21T14:55:45;12.40;4.70
42141;DHT22;27809;51.864;5.646;2024-02-21T14:58:11;12.30;2.40
42141;DHT22;27809;51.864;5.646;2024-02-21T15:00:36;12.20;1.00
42141;DHT22;27809;51.864;5.646;2024-02-21T15:03:02;12.00;1.50
42141;DHT22;27809;51.864;5.646;2024-02-21T15:05:28;11.90;2.00
42141;DHT22;27809;51.864;5.646;2024-02-21T15:07:56;11.80;3.40
42141;DHT22;27809;51.864;5.646;2024-02-21T15:10:23;11.70;4.70
42141;DHT22;27809;51.864;5.646;2024-02-21T15:12:48;11.60;6.20
42141;DHT22;27809;51.864;5.646;2024-02-21T15:15:14;11.50;7.10
42141;DHT22;27809;51.864;5.646;2024-02-21T15:17:40;11.30;8.50
42141;DHT22;27809;51.864;5.646;2024-02-21T15:20:06;11.30;9.40
42141;DHT22;27809;51.864;5.646;2024-02-21T15:22:35;11.20;10.50
42141;DHT22;27809;51.864;5.646;2024-02-21T15:25:04;11.20;12.50
42141;DHT22;27809;51.864;5.646;2024-02-21T15:27:33;11.20;13.30
42141;DHT22;27809;51.864;5.646;2024-02-21T15:29:59;11.10;14.80
42141;DHT22;27809;51.864;5.646;2024-02-21T15:32:27;11.10;16.10